createdAt,value
2017-10-13T00:00:08.818Z,25.7
2017-10-13T00:01:09.554Z,18.7
2017-10-13T00:02:10.347Z,25.5
2017-10-13T00:03:11.084Z,21.5
2017-10-13T00:04:11.815Z,20.7
2017-10-13T00:05:12.714Z,25.0
2017-10-13T00:06:13.434Z,26.5
2017-10-13T00:07:14.159Z,20.4
2017-10-13T00:08:14.948Z,24.5
2017-10-13T00:09:15.678Z,22.9
2017-10-13T00:10:16.762Z,21.7
2017-10-13T00:11:17.488Z,20.4
2017-10-13T00:12:18.214Z,26.9
2017-10-13T00:13:19.026Z,26.2
2017-10-13T00:14:19.828Z,19.1
2017-10-13T00:15:20.663Z,21.8
2017-10-13T00:16:21.451Z,27.9
2017-10-13T00:17:22.223Z,29.7
2017-10-13T00:18:23.039Z,20.5
2017-10-13T00:19:23.846Z,17.2
2017-10-13T00:20:24.619Z,26.0
2017-10-13T00:21:25.346Z,25.9
2017-10-13T00:22:26.102Z,21.6
2017-10-13T00:23:26.902Z,25.2
2017-10-13T00:24:27.627Z,23.5
2017-10-13T00:25:28.463Z,35.9
2017-10-13T00:26:29.247Z,23.5
2017-10-13T00:27:29.977Z,20.5
2017-10-13T00:28:30.712Z,24.5
2017-10-13T00:29:31.428Z,23.8
2017-10-13T00:30:32.169Z,34.0
2017-10-13T00:31:33.192Z,20.4
2017-10-13T00:32:33.927Z,26.5
2017-10-13T00:33:34.645Z,25.1
2017-10-13T00:34:35.321Z,33.7
2017-10-13T00:35:36.118Z,26.7
2017-10-13T00:36:36.901Z,26.1
2017-10-13T00:37:37.636Z,21.5
2017-10-13T00:38:38.408Z,19.9
2017-10-13T00:39:39.214Z,22.7
2017-10-13T00:40:40.015Z,26.6
2017-10-13T00:41:41.148Z,26.8
2017-10-13T00:42:41.932Z,23.1
2017-10-13T00:43:42.655Z,27.1
2017-10-13T00:44:43.467Z,33.1
2017-10-13T00:45:44.186Z,22.3
2017-10-13T00:46:45.324Z,22.4
2017-10-13T00:47:46.133Z,26.2
2017-10-13T00:48:46.847Z,31.1
2017-10-13T00:49:47.567Z,19.0
2017-10-13T00:50:48.305Z,33.5
2017-10-13T00:51:49.147Z,18.1
2017-10-13T00:52:49.938Z,16.3
2017-10-13T00:53:50.673Z,25.7
2017-10-13T00:54:51.421Z,17.6
2017-10-13T00:55:52.192Z,25.5
2017-10-13T00:56:52.978Z,20.7
2017-10-13T00:57:53.707Z,25.1
2017-10-13T00:58:54.483Z,20.3
2017-10-13T00:59:55.213Z,21.2
2017-10-13T01:00:55.941Z,23.1
2017-10-13T01:01:56.772Z,23.7
2017-10-13T01:02:57.510Z,22.0
2017-10-13T01:03:58.284Z,22.9
2017-10-13T01:04:59.059Z,19.5
2017-10-13T01:05:59.793Z,18.7
2017-10-13T01:07:00.891Z,28.3
2017-10-13T01:08:01.631Z,22.4
2017-10-13T01:09:02.412Z,20.1
2017-10-13T01:10:03.188Z,20.1
2017-10-13T01:11:03.923Z,24.1
2017-10-13T01:12:04.852Z,23.2
2017-10-13T01:13:05.647Z,19.3
2017-10-13T01:14:06.380Z,23.6
2017-10-13T01:15:07.187Z,19.8
2017-10-13T01:16:08.002Z,22.6
2017-10-13T01:17:08.842Z,17.5
2017-10-13T01:18:09.580Z,21.9
2017-10-13T01:19:10.339Z,22.1
2017-10-13T01:20:11.136Z,21.5
2017-10-13T01:21:11.907Z,20.9
2017-10-13T01:22:12.744Z,20.2
2017-10-13T01:23:13.481Z,19.1
2017-10-13T01:24:14.209Z,20.7
2017-10-13T01:25:14.930Z,29.9
2017-10-13T01:26:15.671Z,18.7
2017-10-13T01:27:16.878Z,18.9
2017-10-13T01:28:17.611Z,19.8
2017-10-13T01:29:18.350Z,15.8
2017-10-13T01:30:19.146Z,20.5
2017-10-13T01:31:19.922Z,19.7
2017-10-13T01:32:20.688Z,19.1
2017-10-13T01:33:21.447Z,30.1
2017-10-13T01:34:22.183Z,16.2
2017-10-13T01:35:22.987Z,20.5
2017-10-13T01:36:23.752Z,25.3
2017-10-13T01:37:24.785Z,22.4
2017-10-13T01:38:25.591Z,24.4
2017-10-13T01:39:26.303Z,22.2
2017-10-13T01:40:27.028Z,25.4
2017-10-13T01:41:27.761Z,18.4
2017-10-13T01:42:28.556Z,31.2
2017-10-13T01:43:29.359Z,19.5
2017-10-13T01:44:30.101Z,27.5
2017-10-13T01:45:30.881Z,27.4
2017-10-13T01:46:31.613Z,21.8
2017-10-13T01:47:32.438Z,22.4
2017-10-13T01:48:33.227Z,20.2
2017-10-13T01:49:33.962Z,28.4
2017-10-13T01:50:34.689Z,26.9
2017-10-13T01:51:35.424Z,17.3
2017-10-13T01:52:36.445Z,25.9
2017-10-13T01:53:37.261Z,21.5
2017-10-13T01:54:38.031Z,20.5
2017-10-13T01:55:38.769Z,16.8
2017-10-13T01:56:39.551Z,17.8
2017-10-13T01:57:40.373Z,20.2
2017-10-13T01:58:41.110Z,22.7
2017-10-13T01:59:41.871Z,22.0
2017-10-13T02:00:42.664Z,23.7
2017-10-13T02:01:43.462Z,20.0
2017-10-13T02:02:44.604Z,22.8
2017-10-13T02:03:45.402Z,18.6
2017-10-13T02:04:46.119Z,19.8
2017-10-13T02:05:46.840Z,27.6
2017-10-13T02:06:47.572Z,21.8
2017-10-13T02:07:48.300Z,22.5
2017-10-13T02:08:49.038Z,22.4
2017-10-13T02:09:49.771Z,24.5
2017-10-13T02:10:50.552Z,18.2
2017-10-13T02:11:51.279Z,28.3
2017-10-13T02:12:52.077Z,22.5
2017-10-13T02:13:52.804Z,24.8
2017-10-13T02:14:53.611Z,19.3
2017-10-13T02:15:54.390Z,26.8
2017-10-13T02:16:55.133Z,31.3
2017-10-13T02:17:55.874Z,24.9
2017-10-13T02:18:56.701Z,23.3
2017-10-13T02:19:57.458Z,17.1
2017-10-13T02:20:58.299Z,28.7
2017-10-13T02:21:59.066Z,28.3
2017-10-13T02:22:59.862Z,26.2
2017-10-13T02:24:00.590Z,24.7
2017-10-13T02:25:01.316Z,26.2
2017-10-13T02:26:02.130Z,25.3
2017-10-13T02:27:02.857Z,25.8
2017-10-13T02:28:03.661Z,28.0
2017-10-13T02:29:04.391Z,25.5
2017-10-13T02:30:05.125Z,33.0
2017-10-13T02:31:05.950Z,22.4
2017-10-13T02:32:06.685Z,25.8
2017-10-13T02:33:07.481Z,23.4
2017-10-13T02:34:08.211Z,23.1
2017-10-13T02:35:08.942Z,23.7
2017-10-13T02:36:09.741Z,24.7
2017-10-13T02:37:10.536Z,24.7
2017-10-13T02:38:11.268Z,24.5
2017-10-13T02:39:12.041Z,21.7
2017-10-13T02:40:12.780Z,27.8
2017-10-13T02:41:13.509Z,21.5
2017-10-13T02:42:14.290Z,20.8
2017-10-13T02:43:15.020Z,26.1
2017-10-13T02:44:15.742Z,20.6
2017-10-13T02:45:16.473Z,25.1
2017-10-13T02:46:17.201Z,35.2
2017-10-13T02:47:17.983Z,26.3
2017-10-13T02:48:19.109Z,35.2
2017-10-13T02:49:19.943Z,27.2
2017-10-13T02:50:20.713Z,30.4
2017-10-13T02:51:21.438Z,25.1
2017-10-13T02:52:22.201Z,28.5
2017-10-13T02:53:22.930Z,29.5
2017-10-13T02:54:23.769Z,41.8
2017-10-13T02:55:24.498Z,33.6
2017-10-13T02:56:25.224Z,31.3
2017-10-13T02:57:25.940Z,27.1
2017-10-13T02:58:26.673Z,29.4
2017-10-13T02:59:27.526Z,33.1
2017-10-13T03:00:28.260Z,28.6
2017-10-13T03:01:29.011Z,33.3
2017-10-13T03:02:29.765Z,20.0
2017-10-13T03:03:30.505Z,31.9
2017-10-13T03:04:31.385Z,26.9
2017-10-13T03:05:32.180Z,27.0
2017-10-13T03:06:32.910Z,22.3
2017-10-13T03:07:33.746Z,22.5
2017-10-13T03:08:34.532Z,27.5
2017-10-13T03:09:35.631Z,39.6
2017-10-13T03:10:36.456Z,31.7
2017-10-13T03:11:37.258Z,32.7
2017-10-13T03:12:37.985Z,27.2
2017-10-13T03:13:38.779Z,37.0
2017-10-13T03:14:39.857Z,34.2
2017-10-13T03:15:40.661Z,28.1
2017-10-13T03:16:41.436Z,31.7
2017-10-13T03:17:42.176Z,28.2
2017-10-13T03:18:42.970Z,29.1
2017-10-13T03:19:43.770Z,23.9
2017-10-13T03:20:44.567Z,32.4
2017-10-13T03:21:45.288Z,31.1
2017-10-13T03:22:46.021Z,29.7
2017-10-13T03:23:46.747Z,33.9
2017-10-13T03:24:47.527Z,29.5
2017-10-13T03:25:48.262Z,29.7
2017-10-13T03:26:49.033Z,37.8
2017-10-13T03:27:49.818Z,30.0
2017-10-13T03:28:50.553Z,32.9
2017-10-13T03:29:51.733Z,31.0
2017-10-13T03:30:52.495Z,29.0
2017-10-13T03:31:53.210Z,42.4
2017-10-13T03:32:54.051Z,35.0
2017-10-13T03:33:54.758Z,37.4
2017-10-13T03:34:55.687Z,30.9
2017-10-13T03:35:56.418Z,36.2
2017-10-13T03:36:57.150Z,30.1
2017-10-13T03:37:57.970Z,31.9
2017-10-13T03:38:58.784Z,39.6
2017-10-13T03:39:59.547Z,30.4
2017-10-13T03:41:00.279Z,36.0
2017-10-13T03:42:01.010Z,39.5
2017-10-13T03:43:01.817Z,36.9
2017-10-13T03:44:02.598Z,30.1
2017-10-13T03:45:03.789Z,35.9
2017-10-13T03:46:04.607Z,31.7
2017-10-13T03:47:05.337Z,38.0
2017-10-13T03:48:06.138Z,38.2
2017-10-13T03:49:06.872Z,30.0
2017-10-13T03:50:08.083Z,31.5
2017-10-13T03:51:08.872Z,34.0
2017-10-13T03:52:09.595Z,32.7
2017-10-13T03:53:10.321Z,42.1
2017-10-13T03:54:11.055Z,44.9
2017-10-13T03:55:11.968Z,35.0
2017-10-13T03:56:12.740Z,36.8
2017-10-13T03:57:13.472Z,36.9
2017-10-13T03:58:14.271Z,47.3
2017-10-13T03:59:15.002Z,37.6
2017-10-13T04:00:16.191Z,38.5
2017-10-13T04:01:16.920Z,36.2
2017-10-13T04:02:17.671Z,37.4
2017-10-13T04:03:18.451Z,32.0
2017-10-13T04:04:19.182Z,35.7
2017-10-13T04:05:20.012Z,136.2
2017-10-13T04:06:20.733Z,62.2
2017-10-13T04:07:21.452Z,53.5
2017-10-13T04:08:22.189Z,52.1
2017-10-13T04:09:22.971Z,37.7
2017-10-13T04:10:23.704Z,36.1
2017-10-13T04:11:24.802Z,33.8
2017-10-13T04:12:25.525Z,35.1
2017-10-13T04:13:26.250Z,41.2
2017-10-13T04:14:26.987Z,32.6
2017-10-13T04:15:27.782Z,45.9
2017-10-13T04:16:28.808Z,40.5
2017-10-13T04:17:29.550Z,45.8
2017-10-13T04:18:30.331Z,45.6
2017-10-13T04:19:31.097Z,29.8
2017-10-13T04:20:31.826Z,30.1
2017-10-13T04:21:32.567Z,36.9
2017-10-13T04:22:33.322Z,34.3
2017-10-13T04:23:34.062Z,37.0
2017-10-13T04:24:34.834Z,27.3
2017-10-13T04:25:35.554Z,35.9
2017-10-13T04:26:36.383Z,33.3
2017-10-13T04:27:37.182Z,31.0
2017-10-13T04:28:37.912Z,30.3
2017-10-13T04:29:38.686Z,31.5
2017-10-13T04:30:39.399Z,38.4
2017-10-13T04:31:40.183Z,38.0
2017-10-13T04:32:40.982Z,41.4
2017-10-13T04:33:41.717Z,34.0
2017-10-13T04:34:42.502Z,27.7
2017-10-13T04:35:43.232Z,41.1
2017-10-13T04:36:44.014Z,31.1
2017-10-13T04:37:44.808Z,33.6
2017-10-13T04:38:45.547Z,38.4
2017-10-13T04:39:46.343Z,45.4
2017-10-13T04:40:47.076Z,37.4
2017-10-13T04:41:47.891Z,35.6
2017-10-13T04:42:48.610Z,39.5
2017-10-13T04:43:49.330Z,30.9
2017-10-13T04:44:50.059Z,37.7
2017-10-13T04:45:50.786Z,43.8
2017-10-13T04:46:51.613Z,50.2
2017-10-13T04:47:52.344Z,39.7
2017-10-13T04:48:53.130Z,35.6
2017-10-13T04:49:53.854Z,37.4
2017-10-13T04:50:54.580Z,34.2
2017-10-13T04:51:55.359Z,31.2
2017-10-13T04:52:56.094Z,50.1
2017-10-13T04:53:56.822Z,31.9
2017-10-13T04:54:57.548Z,42.1
2017-10-13T04:55:58.229Z,53.4
2017-10-13T04:56:59.056Z,48.9
2017-10-13T04:57:59.793Z,35.6
2017-10-13T04:59:00.598Z,30.2
2017-10-13T05:00:01.370Z,38.6
2017-10-13T05:01:02.080Z,49.5
2017-10-13T05:02:02.904Z,47.6
2017-10-13T05:03:03.701Z,43.9
2017-10-13T05:04:04.489Z,46.1
2017-10-13T05:05:05.219Z,30.1
2017-10-13T05:06:06.019Z,46.5
2017-10-13T05:07:06.796Z,49.5
2017-10-13T05:08:07.508Z,44.2
2017-10-13T05:09:08.242Z,40.5
2017-10-13T05:10:09.013Z,49.0
2017-10-13T05:11:09.797Z,45.6
2017-10-13T05:12:10.579Z,49.9
2017-10-13T05:13:11.317Z,47.1
2017-10-13T05:14:12.061Z,41.6
2017-10-13T05:15:12.860Z,49.5
2017-10-13T05:16:13.558Z,52.0
2017-10-13T05:17:14.339Z,52.3
2017-10-13T05:18:15.070Z,55.9
2017-10-13T05:19:15.871Z,51.7
2017-10-13T05:20:16.599Z,47.5
2017-10-13T05:21:17.344Z,37.6
2017-10-13T05:22:18.228Z,47.4
2017-10-13T05:23:18.955Z,44.8
2017-10-13T05:24:19.686Z,49.4
2017-10-13T05:25:20.456Z,44.0
2017-10-13T05:26:21.174Z,52.5
2017-10-13T05:27:22.708Z,51.2
2017-10-13T05:28:23.440Z,61.4
2017-10-13T05:29:24.246Z,62.6
2017-10-13T05:30:25.000Z,56.2
2017-10-13T05:31:25.802Z,60.9
2017-10-13T05:32:26.961Z,51.3
2017-10-13T05:33:27.690Z,57.9
2017-10-13T05:34:28.360Z,46.4
2017-10-13T05:35:29.079Z,55.4
2017-10-13T05:36:29.801Z,52.4
2017-10-13T05:37:30.571Z,45.2
2017-10-13T05:38:31.328Z,68.2
2017-10-13T05:39:32.004Z,47.9
2017-10-13T05:40:32.736Z,63.4
2017-10-13T05:41:33.461Z,60.8
2017-10-13T05:42:34.260Z,51.8
2017-10-13T05:43:34.990Z,57.6
2017-10-13T05:44:35.730Z,51.3
2017-10-13T05:45:36.467Z,52.1
2017-10-13T05:46:37.190Z,63.6
2017-10-13T05:47:37.992Z,132.7
2017-10-13T05:48:38.791Z,69.4
2017-10-13T05:49:39.530Z,56.0
2017-10-13T05:50:40.311Z,49.0
2017-10-13T05:51:41.157Z,53.8
2017-10-13T05:52:42.032Z,62.5
2017-10-13T05:53:42.770Z,41.8
2017-10-13T05:54:43.511Z,46.2
2017-10-13T05:55:44.341Z,48.2
2017-10-13T05:56:45.123Z,199.9
2017-10-13T05:57:45.921Z,84.5
2017-10-13T05:58:46.672Z,51.3
2017-10-13T05:59:47.401Z,107.8
2017-10-13T06:00:48.145Z,85.4
2017-10-13T06:01:48.890Z,47.2
2017-10-13T06:02:49.654Z,37.4
2017-10-13T06:03:50.523Z,52.5
2017-10-13T06:04:51.282Z,41.4
2017-10-13T06:05:52.012Z,36.7
2017-10-13T06:06:52.740Z,47.9
2017-10-13T06:07:53.471Z,45.1
2017-10-13T06:08:54.264Z,38.4
2017-10-13T06:09:54.997Z,42.5
2017-10-13T06:10:55.834Z,39.0
2017-10-13T06:11:56.627Z,42.4
2017-10-13T06:12:57.437Z,29.9
2017-10-13T06:13:58.275Z,46.5
2017-10-13T06:14:59.077Z,42.3
2017-10-13T06:15:59.840Z,43.9
2017-10-13T06:17:00.579Z,34.4
2017-10-13T06:18:01.366Z,41.6
2017-10-13T06:19:02.247Z,30.7
2017-10-13T06:20:02.982Z,33.4
2017-10-13T06:21:03.788Z,31.4
2017-10-13T06:22:04.580Z,36.6
2017-10-13T06:23:05.316Z,37.0
2017-10-13T06:24:06.056Z,37.0
2017-10-13T06:25:06.835Z,42.3
2017-10-13T06:26:07.664Z,25.3
2017-10-13T06:27:08.436Z,35.6
2017-10-13T06:28:09.170Z,31.7
2017-10-13T06:29:09.902Z,37.2
2017-10-13T06:30:10.705Z,29.6
2017-10-13T06:31:11.504Z,43.3
2017-10-13T06:32:12.583Z,24.6
2017-10-13T06:33:13.341Z,38.3
2017-10-13T06:34:14.099Z,33.4
2017-10-13T06:35:14.841Z,33.9
2017-10-13T06:36:15.650Z,37.2
2017-10-13T06:37:16.430Z,30.8
2017-10-13T06:38:17.180Z,36.0
2017-10-13T06:39:18.028Z,30.9
2017-10-13T06:40:18.851Z,32.2
2017-10-13T06:41:19.599Z,39.1
2017-10-13T06:42:20.332Z,32.1
2017-10-13T06:43:21.081Z,37.7
2017-10-13T06:44:21.914Z,39.6
2017-10-13T06:45:22.733Z,37.0
2017-10-13T06:46:23.470Z,40.1
2017-10-13T06:47:24.199Z,30.0
2017-10-13T06:48:24.955Z,31.7
2017-10-13T06:49:25.812Z,34.3
2017-10-13T06:50:26.551Z,39.1
2017-10-13T06:51:27.329Z,33.1
2017-10-13T06:52:28.069Z,35.0
2017-10-13T06:53:28.806Z,34.0
2017-10-13T06:54:29.581Z,32.4
2017-10-13T06:55:30.394Z,25.2
2017-10-13T06:56:31.175Z,45.7
2017-10-13T06:57:31.990Z,33.2
2017-10-13T06:58:32.729Z,28.5
2017-10-13T06:59:33.462Z,35.0
2017-10-13T07:00:34.277Z,25.2
2017-10-13T07:01:35.080Z,30.6
2017-10-13T07:02:35.821Z,31.9
2017-10-13T07:03:36.529Z,39.8
2017-10-13T07:04:37.313Z,28.2
2017-10-13T07:05:38.058Z,30.2
2017-10-13T07:06:38.794Z,34.4
2017-10-13T07:07:39.543Z,34.9
2017-10-13T07:08:40.345Z,33.5
2017-10-13T07:09:41.207Z,27.4
2017-10-13T07:10:41.957Z,32.9
2017-10-13T07:11:42.714Z,22.9
2017-10-13T07:12:43.542Z,28.8
2017-10-13T07:13:44.348Z,20.2
2017-10-13T07:14:45.239Z,33.7
2017-10-13T07:15:46.000Z,28.3
2017-10-13T07:16:46.810Z,27.4
2017-10-13T07:17:47.572Z,28.9
2017-10-13T07:18:48.358Z,25.6
2017-10-13T07:19:49.158Z,33.0
2017-10-13T07:20:49.960Z,35.3
2017-10-13T07:21:50.690Z,24.2
2017-10-13T07:22:51.420Z,31.3
2017-10-13T07:23:52.233Z,21.2
2017-10-13T07:24:53.260Z,26.6
2017-10-13T07:25:54.008Z,30.3
2017-10-13T07:26:54.801Z,31.7
2017-10-13T07:27:55.613Z,29.8
2017-10-13T07:28:56.411Z,24.2
2017-10-13T07:29:57.203Z,22.4
2017-10-13T07:30:58.002Z,26.4
2017-10-13T07:31:58.739Z,23.3
2017-10-13T07:32:59.540Z,23.7
2017-10-13T07:34:00.275Z,33.1
2017-10-13T07:35:00.952Z,33.5
2017-10-13T07:36:01.773Z,26.0
2017-10-13T07:37:02.561Z,27.1
2017-10-13T07:38:03.391Z,24.0
2017-10-13T07:39:04.119Z,24.3
2017-10-13T07:40:04.859Z,25.2
2017-10-13T07:41:05.673Z,24.5
2017-10-13T07:42:06.492Z,25.8
2017-10-13T07:43:07.690Z,31.4
2017-10-13T07:44:08.422Z,27.1
2017-10-13T07:45:09.154Z,24.0
2017-10-13T07:46:09.900Z,30.9
2017-10-13T07:47:10.631Z,35.3
2017-10-13T07:48:11.360Z,25.7
2017-10-13T07:49:12.096Z,36.1
2017-10-13T07:50:12.930Z,31.0
2017-10-13T07:51:13.672Z,36.4
2017-10-13T07:52:14.511Z,25.6
2017-10-13T07:53:15.245Z,22.3
2017-10-13T07:54:15.973Z,24.4
2017-10-13T07:55:17.012Z,18.9
2017-10-13T07:56:17.821Z,27.6
2017-10-13T07:57:18.561Z,25.1
2017-10-13T07:58:19.366Z,27.9
2017-10-13T07:59:20.120Z,33.8
2017-10-13T08:00:21.654Z,24.2
2017-10-13T08:01:22.432Z,22.4
2017-10-13T08:02:23.224Z,21.9
2017-10-13T08:03:24.024Z,22.2
2017-10-13T08:04:24.806Z,30.3
2017-10-13T08:05:25.629Z,23.4
2017-10-13T08:06:26.460Z,27.5
2017-10-13T08:07:27.200Z,20.4
2017-10-13T08:08:28.028Z,22.3
2017-10-13T08:09:28.768Z,28.2
2017-10-13T08:10:29.501Z,26.2
2017-10-13T08:11:30.244Z,28.5
2017-10-13T08:12:31.048Z,21.8
2017-10-13T08:13:31.784Z,26.9
2017-10-13T08:14:32.937Z,32.3
2017-10-13T08:15:33.748Z,38.0
2017-10-13T08:16:34.496Z,25.0
2017-10-13T08:17:35.289Z,28.1
2017-10-13T08:18:36.024Z,23.9
2017-10-13T08:19:36.847Z,22.2
2017-10-13T08:20:37.672Z,23.6
2017-10-13T08:21:38.407Z,25.4
2017-10-13T08:22:39.199Z,30.8
2017-10-13T08:23:39.935Z,26.8
2017-10-13T08:24:40.731Z,19.6
2017-10-13T08:25:41.542Z,21.3
2017-10-13T08:26:42.280Z,24.6
2017-10-13T08:27:43.017Z,31.9
2017-10-13T08:28:43.798Z,17.7
2017-10-13T08:29:44.609Z,23.9
2017-10-13T08:30:45.505Z,26.9
2017-10-13T08:31:46.237Z,35.0
2017-10-13T08:32:46.990Z,23.3
2017-10-13T08:33:47.728Z,28.8
2017-10-13T08:34:48.474Z,28.0
2017-10-13T08:35:49.326Z,23.5
2017-10-13T08:36:50.072Z,22.8
2017-10-13T08:37:50.877Z,30.2
2017-10-13T08:38:51.617Z,22.8
2017-10-13T08:39:52.360Z,26.9
2017-10-13T08:40:53.193Z,20.0
2017-10-13T08:41:53.938Z,23.1
2017-10-13T08:42:54.742Z,25.5
2017-10-13T08:43:55.521Z,23.5
2017-10-13T08:44:56.326Z,31.2
2017-10-13T08:45:57.068Z,27.1
2017-10-13T08:46:57.869Z,22.6
2017-10-13T08:47:58.737Z,31.1
2017-10-13T08:48:59.483Z,18.5
2017-10-13T08:50:00.277Z,29.8
2017-10-13T08:51:01.014Z,22.0
2017-10-13T08:52:01.747Z,31.8
2017-10-13T08:53:02.910Z,23.7
2017-10-13T08:54:03.724Z,24.4
2017-10-13T08:55:04.453Z,27.2
2017-10-13T08:56:05.268Z,20.2
2017-10-13T08:57:06.099Z,18.8
2017-10-13T08:58:06.985Z,23.6
2017-10-13T08:59:07.717Z,21.5
2017-10-13T09:00:08.459Z,19.8
2017-10-13T09:01:09.210Z,26.6
2017-10-13T09:02:10.015Z,20.8
2017-10-13T09:03:10.799Z,25.9
2017-10-13T09:04:11.538Z,29.1
2017-10-13T09:05:12.338Z,25.1
2017-10-13T09:06:13.072Z,30.4
2017-10-13T09:07:13.814Z,29.0
2017-10-13T09:08:14.726Z,20.3
2017-10-13T09:09:15.510Z,20.2
2017-10-13T09:10:16.320Z,22.3
2017-10-13T09:11:17.130Z,27.6
2017-10-13T09:12:17.938Z,27.8
2017-10-13T09:13:18.774Z,29.3
2017-10-13T09:14:19.518Z,33.3
2017-10-13T09:15:20.308Z,19.4
2017-10-13T09:16:21.040Z,27.2
2017-10-13T09:17:21.850Z,25.0
2017-10-13T09:18:22.589Z,19.1
2017-10-13T09:19:23.320Z,31.1
2017-10-13T09:20:24.060Z,26.8
2017-10-13T09:21:24.799Z,25.3
2017-10-13T09:22:25.538Z,26.0
2017-10-13T09:23:26.280Z,30.0
2017-10-13T09:24:27.101Z,31.4
2017-10-13T09:25:27.840Z,31.6
2017-10-13T09:26:28.578Z,29.2
2017-10-13T09:27:29.405Z,22.3
2017-10-13T09:28:30.138Z,24.6
2017-10-13T09:29:30.869Z,31.7
2017-10-13T09:30:31.651Z,31.4
2017-10-13T09:31:32.439Z,22.4
2017-10-13T09:32:33.195Z,23.1
2017-10-13T09:33:33.988Z,21.3
2017-10-13T09:34:34.729Z,29.0
2017-10-13T09:35:35.519Z,25.8
2017-10-13T09:36:36.257Z,24.3
2017-10-13T09:37:37.002Z,20.0
2017-10-13T09:38:37.772Z,26.9
2017-10-13T09:39:38.549Z,25.1
2017-10-13T09:40:39.297Z,22.7
2017-10-13T09:41:40.115Z,26.6
2017-10-13T09:42:40.850Z,32.1
2017-10-13T09:43:41.601Z,26.2
2017-10-13T09:44:42.383Z,26.1
2017-10-13T09:45:43.243Z,29.1
2017-10-13T09:46:43.992Z,25.0
2017-10-13T09:47:44.791Z,21.1
2017-10-13T09:48:45.532Z,21.8
2017-10-13T09:49:46.360Z,21.2
2017-10-13T09:50:47.216Z,28.6
2017-10-13T09:51:48.047Z,31.4
2017-10-13T09:52:48.837Z,33.9
2017-10-13T09:53:49.590Z,27.7
2017-10-13T09:54:50.341Z,25.2
2017-10-13T09:55:51.150Z,27.8
2017-10-13T09:56:51.891Z,28.9
2017-10-13T09:57:52.709Z,28.0
2017-10-13T09:58:53.461Z,20.4
2017-10-13T09:59:54.275Z,30.7
2017-10-13T10:00:55.141Z,28.1
2017-10-13T10:01:55.889Z,33.6
2017-10-13T10:02:56.629Z,27.5
2017-10-13T10:03:57.379Z,24.6
2017-10-13T10:04:58.118Z,28.8
2017-10-13T10:05:58.943Z,26.9
2017-10-13T10:06:59.749Z,24.3
2017-10-13T10:08:00.497Z,26.8
2017-10-13T10:09:01.220Z,33.9
2017-10-13T10:10:01.967Z,31.7
2017-10-13T10:11:02.845Z,27.3
2017-10-13T10:12:03.595Z,19.6
2017-10-13T10:13:04.398Z,26.9
2017-10-13T10:14:05.140Z,24.4
2017-10-13T10:15:05.957Z,23.0
2017-10-13T10:16:06.809Z,26.4
2017-10-13T10:17:07.564Z,24.5
2017-10-13T10:18:08.297Z,24.8
2017-10-13T10:19:09.034Z,31.0
2017-10-13T10:20:09.772Z,22.1
2017-10-13T10:21:10.917Z,32.1
2017-10-13T10:22:11.709Z,24.3
2017-10-13T10:23:12.453Z,24.3
2017-10-13T10:24:13.243Z,22.6
2017-10-13T10:25:14.043Z,22.1
2017-10-13T10:26:14.894Z,25.2
2017-10-13T10:27:15.724Z,24.6
2017-10-13T10:28:16.469Z,35.3
2017-10-13T10:29:17.229Z,25.1
2017-10-13T10:30:17.984Z,25.7
2017-10-13T10:31:18.824Z,22.0
2017-10-13T10:32:19.561Z,19.7
2017-10-13T10:33:20.298Z,21.0
2017-10-13T10:34:21.048Z,25.0
2017-10-13T10:35:21.817Z,31.3
2017-10-13T10:36:22.604Z,23.8
2017-10-13T10:37:23.419Z,34.5
2017-10-13T10:38:24.170Z,32.1
2017-10-13T10:39:24.973Z,26.3
2017-10-13T10:40:25.720Z,25.0
2017-10-13T10:41:26.589Z,27.5
2017-10-13T10:42:27.398Z,19.6
2017-10-13T10:43:28.140Z,24.0
2017-10-13T10:44:28.881Z,26.7
2017-10-13T10:45:29.619Z,21.5
2017-10-13T10:46:30.464Z,24.1
2017-10-13T10:47:31.260Z,30.2
2017-10-13T10:48:32.008Z,25.1
2017-10-13T10:49:32.753Z,32.6
2017-10-13T10:50:33.483Z,26.2
2017-10-13T10:51:34.319Z,25.4
2017-10-13T10:52:35.061Z,26.9
2017-10-13T10:53:35.859Z,25.0
2017-10-13T10:54:36.598Z,22.2
2017-10-13T10:55:37.339Z,22.0
2017-10-13T10:56:38.429Z,22.8
2017-10-13T10:57:39.159Z,20.8
2017-10-13T10:58:39.913Z,28.3
2017-10-13T10:59:40.691Z,22.8
2017-10-13T11:00:41.432Z,27.2
2017-10-13T11:01:42.302Z,25.0
2017-10-13T11:02:43.040Z,26.1
2017-10-13T11:03:43.775Z,25.2
2017-10-13T11:04:44.525Z,24.2
2017-10-13T11:05:45.332Z,24.7
2017-10-13T11:06:46.249Z,25.1
2017-10-13T11:07:46.998Z,24.1
2017-10-13T11:08:47.731Z,24.5
2017-10-13T11:09:48.475Z,17.7
2017-10-13T11:10:49.286Z,20.4
2017-10-13T11:11:50.112Z,21.7
2017-10-13T11:12:50.935Z,19.6
2017-10-13T11:13:51.728Z,18.5
2017-10-13T11:14:52.479Z,26.2
2017-10-13T11:15:53.219Z,22.4
2017-10-13T11:16:53.976Z,21.8
2017-10-13T11:17:54.786Z,21.1
2017-10-13T11:18:55.602Z,19.9
2017-10-13T11:19:56.335Z,24.3
2017-10-13T11:20:57.149Z,25.8
2017-10-13T11:21:58.044Z,28.9
2017-10-13T11:22:58.869Z,20.2
2017-10-13T11:23:59.654Z,24.8
2017-10-13T11:25:00.476Z,22.7
2017-10-13T11:26:01.272Z,23.6
2017-10-13T11:27:02.421Z,24.8
2017-10-13T11:28:03.212Z,27.9
2017-10-13T11:29:03.964Z,20.5
2017-10-13T11:30:04.775Z,23.4
2017-10-13T11:31:05.523Z,22.0
2017-10-13T11:32:06.374Z,28.9
2017-10-13T11:33:07.051Z,29.3
2017-10-13T11:34:07.808Z,19.3
2017-10-13T11:35:08.562Z,17.5
2017-10-13T11:36:09.381Z,22.8
2017-10-13T11:37:10.221Z,17.1
2017-10-13T11:38:10.962Z,23.1
2017-10-13T11:39:11.715Z,24.9
2017-10-13T11:40:12.512Z,15.8
2017-10-13T11:41:13.249Z,20.1
2017-10-13T11:42:14.402Z,19.4
2017-10-13T11:43:15.213Z,26.5
2017-10-13T11:44:15.946Z,20.0
2017-10-13T11:45:16.693Z,18.8
2017-10-13T11:46:17.432Z,16.5
2017-10-13T11:47:18.288Z,25.5
2017-10-13T11:48:19.105Z,27.6
2017-10-13T11:49:19.912Z,18.9
2017-10-13T11:50:20.652Z,18.8
2017-10-13T11:51:21.401Z,20.7
2017-10-13T11:52:22.306Z,24.7
2017-10-13T11:53:23.061Z,23.2
2017-10-13T11:54:23.804Z,19.3
2017-10-13T11:55:24.623Z,21.7
2017-10-13T11:56:25.402Z,26.5
2017-10-13T11:57:26.194Z,21.4
2017-10-13T11:58:27.011Z,23.3
2017-10-13T11:59:27.763Z,26.6
2017-10-13T12:00:28.570Z,22.1
2017-10-13T12:01:29.320Z,16.8
2017-10-13T12:02:30.107Z,21.8
2017-10-13T12:03:30.841Z,26.4
2017-10-13T12:04:31.581Z,22.7
2017-10-13T12:05:32.322Z,20.8
2017-10-13T12:06:33.063Z,30.6
2017-10-13T12:07:34.151Z,19.4
2017-10-13T12:08:34.891Z,19.7
2017-10-13T12:09:35.722Z,19.9
2017-10-13T12:10:36.501Z,16.8
2017-10-13T12:11:37.319Z,29.5
2017-10-13T12:12:38.133Z,19.4
2017-10-13T12:13:38.919Z,20.7
2017-10-13T12:14:39.753Z,26.7
2017-10-13T12:15:40.530Z,21.9
2017-10-13T12:16:41.271Z,22.0
2017-10-13T12:17:42.093Z,18.2
2017-10-13T12:18:42.871Z,22.8
2017-10-13T12:19:43.604Z,21.8
2017-10-13T12:20:44.421Z,16.0
2017-10-13T12:21:45.230Z,18.1
2017-10-13T12:22:45.969Z,20.1
2017-10-13T12:23:46.719Z,22.2
2017-10-13T12:24:47.466Z,22.0
2017-10-13T12:25:48.206Z,22.6
2017-10-13T12:26:49.011Z,24.8
2017-10-13T12:27:49.749Z,17.4
2017-10-13T12:28:50.489Z,35.5
2017-10-13T12:29:51.232Z,20.5
2017-10-13T12:30:51.975Z,20.2
2017-10-13T12:31:52.714Z,25.1
2017-10-13T12:32:53.577Z,22.4
2017-10-13T12:33:54.322Z,18.4
2017-10-13T12:34:55.058Z,19.3
2017-10-13T12:35:55.818Z,21.6
2017-10-13T12:36:56.558Z,18.5
2017-10-13T12:37:57.355Z,18.7
2017-10-13T12:38:58.152Z,20.8
2017-10-13T12:39:58.892Z,18.5
2017-10-13T12:40:59.679Z,14.7
2017-10-13T12:42:00.418Z,17.0
2017-10-13T12:43:01.160Z,19.5
2017-10-13T12:44:01.899Z,17.9
2017-10-13T12:45:02.652Z,21.5
2017-10-13T12:46:03.341Z,16.8
2017-10-13T12:47:04.142Z,22.4
2017-10-13T12:48:04.940Z,25.2
2017-10-13T12:49:05.671Z,20.1
2017-10-13T12:50:06.409Z,21.9
2017-10-13T12:51:07.203Z,19.0
2017-10-13T12:52:07.951Z,20.4
2017-10-13T12:53:08.767Z,21.5
2017-10-13T12:54:09.575Z,22.8
2017-10-13T12:55:10.313Z,16.6
2017-10-13T12:56:11.109Z,27.2
2017-10-13T12:57:11.881Z,27.7
2017-10-13T12:58:12.598Z,25.2
2017-10-13T12:59:13.410Z,20.5
2017-10-13T13:00:14.154Z,20.9
2017-10-13T13:01:15.000Z,24.0
2017-10-13T13:02:15.737Z,26.7
2017-10-13T13:03:16.546Z,23.2
2017-10-13T13:04:17.351Z,22.0
2017-10-13T13:05:18.149Z,21.0
2017-10-13T13:06:19.188Z,22.6
2017-10-13T13:07:19.938Z,15.7
2017-10-13T13:08:20.729Z,22.5
2017-10-13T13:09:21.470Z,21.2
2017-10-13T13:10:22.203Z,24.4
2017-10-13T13:11:22.937Z,18.5
2017-10-13T13:12:23.680Z,20.1
2017-10-13T13:13:24.779Z,21.5
2017-10-13T13:14:25.521Z,14.9
2017-10-13T13:15:26.257Z,22.8
2017-10-13T13:16:27.068Z,17.3
2017-10-13T13:17:27.832Z,19.5
2017-10-13T13:18:28.607Z,19.2
2017-10-13T13:19:29.442Z,22.3
2017-10-13T13:20:30.204Z,20.3
2017-10-13T13:21:31.002Z,20.2
2017-10-13T13:22:31.747Z,18.7
2017-10-13T13:23:32.883Z,17.7
2017-10-13T13:24:33.701Z,20.0
2017-10-13T13:25:34.440Z,18.0
2017-10-13T13:26:35.185Z,25.6
2017-10-13T13:27:35.922Z,14.5
2017-10-13T13:28:36.674Z,19.5